Aeroporto :
LOGIN :

Iscrizione | Disclaimer

   EN    FR    IT 

 










Sommario :    VFR   VFR Marginale   IFR   IFR Intensivo   IFR Molto Intensivo
Visibilità : 
Base nubi : 
>= 8 km
>= 3000ft
5 / 8 km
1000 / 3000 ft
1500m / 5 km
500 / 1000 ft
800 / 1500m
200 / 500 ft
< 800m
< 200 ft
Simboli :   Temporali  Nebbia  Neve Forte  Precipitazioni Forti  Vento > 20 kt
SIGMETs :   Varie  Temporali  Ghiacco  Turbolenza  Onda orograficha  Ceneri Vulcaniche






- Altitudine del aeroporto : 202 ft
- Codice IATA : SQZ


EGXP - RAF Scampton

ULTIMO METAR :
  • 151150Z 03013KT 9999 SCT020 SCT045 09/06 Q1007 RMK WHT

METARs OBSOLETI :
  • 151050Z 03011KT 9999 VCSH SCT020 FEW045CB 08/07 Q1007 RMK WHT
  • 150950Z 03009KT 9999 SCT037 SCT044 BKN050 07/06 Q1007 RMK BLU

TAF TAF EGXP
Valido dal 15 a 12 ore il 15 a 17 ore UTC


151038Z 1512/1517 02013KT 9999 BKN030
PROB40
TEMPO 1512/1516 SCT016
TEMPO 1513/1517 03015G25KT
BECMG 1516/1517 BKN020



MetMap, La meteo Aeronautica in un colpo d'occhio ! - Copyright ORBIFLY Dicembre 2007 - Disclaimer

ORBIFLY MET'MAP TEAM :

Programmazione e sviluppo : Alexandra Zaïnal
Concezione e sviluppo : Baudouin d'Aumeries
Co-Programmazione e sviluppo : Marc-Olivier Méhu
Supporto tecnico e logistico : Manuel Goepfert
Aiuto per la traduzione : Arnaldo La Scala

Contatto : metmap@orbifly.com




FONTI E CREDITI :

   NOAA